Time;durP1;ratioP1;P1;durP2;ratioP2;P2;SDS_P1;SDS_P2;PMS_P1;PMS_P2;Temp;Humidity;BMP_temperature;BMP_pressure;BME280_temperature;BME280_humidity;BME280_pressure;Samples;Min_cycle;Max_cycle;Signal;HPM_P1;HPM_P2
2022/05/21 00:01:25;;;;;;;3.92;1.83;;;;;;;20.85;46.33;101817.84;5053396;28;20185;-68
2022/05/21 00:03:51;;;;;;;1.75;1.27;;;;;;;20.85;45.96;101817.84;5053055;28;20071;-68
2022/05/21 00:06:16;;;;;;;3.97;1.88;;;;;;;20.85;45.92;101812.41;5053453;28;20029;-68
2022/05/21 00:08:43;;;;;;;3.80;1.80;;;;;;;20.84;46.32;101810.69;5051997;28;20158;-68
2022/05/21 00:11:09;;;;;;;4.65;2.00;;;;;;;20.81;46.19;101811.88;5053436;28;20048;-69
2022/05/21 00:13:34;;;;;;;5.05;1.83;;;;;;;20.80;45.88;101810.16;5053280;28;20527;-68
2022/05/21 00:15:59;;;;;;;4.55;2.28;;;;;;;20.80;46.10;101814.75;5053017;28;20070;-69
2022/05/21 00:18:25;;;;;;;3.88;1.95;;;;;;;20.78;46.71;101817.66;5052776;28;20029;-68
2022/05/21 00:20:50;;;;;;;5.65;3.60;;;;;;;20.77;46.35;101820.59;5043993;28;20025;-68
2022/05/21 00:23:28;;;;;;;4.90;2.70;;;;;;;20.75;46.70;101812.56;5033243;28;20025;-68
2022/05/21 00:26:05;;;;;;;8.63;2.45;;;;;;;20.71;46.49;101816.66;5033214;28;20034;-69
2022/05/21 00:28:32;;;;;;;5.97;2.58;;;;;;;20.67;46.05;101826.19;5033356;28;20018;-68
2022/05/21 00:30:58;;;;;;;3.47;2.40;;;;;;;20.66;46.35;101815.47;5032948;28;20108;-69
2022/05/21 00:33:24;;;;;;;5.38;2.63;;;;;;;20.65;46.11;101817.34;5033098;28;20056;-68
2022/05/21 00:35:51;;;;;;;4.03;2.65;;;;;;;20.65;46.32;101811.03;5032837;28;20036;-68
2022/05/21 00:38:16;;;;;;;5.82;2.90;;;;;;;20.64;46.88;101814.78;5033666;28;20490;-68
2022/05/21 00:40:42;;;;;;;7.63;3.00;;;;;;;20.60;46.69;101808.81;5037053;28;20076;-68
2022/05/21 00:43:42;;;;;;;5.60;2.65;;;;;;;20.60;46.40;101816.16;5041313;28;20028;-69
2022/05/21 00:46:22;;;;;;;5.45;2.83;;;;;;;20.56;46.83;101818.38;5056149;28;20061;-69
2022/05/21 00:49:02;;;;;;;4.35;2.65;;;;;;;20.53;46.29;101817.84;5056701;28;20017;-68
2022/05/21 00:51:30;;;;;;;5.47;2.88;;;;;;;20.49;46.66;101814.59;5038317;28;20073;-68
2022/05/21 00:53:58;;;;;;;6.38;2.40;;;;;;;20.46;46.59;101825.00;5038572;28;20021;-69
2022/05/21 00:56:24;;;;;;;6.60;2.30;;;;;;;20.44;47.08;101818.84;5054954;28;20025;-68
2022/05/21 01:01:43;;;;;;;5.63;2.65;;;;;;;20.42;46.62;101820.91;5056460;28;20052;-68
2022/05/21 01:04:08;;;;;;;3.47;2.17;;;;;;;20.42;46.77;101826.34;5055072;28;20021;-68
2022/05/21 01:06:35;;;;;;;7.15;2.55;;;;;;;20.45;46.36;101826.00;5056091;28;20021;-69
2022/05/21 01:09:00;;;;;;;6.47;2.33;;;;;;;20.45;46.43;101823.28;5055952;28;20025;-68
2022/05/21 01:11:26;;;;;;;7.25;2.22;;;;;;;20.47;46.25;101823.97;5056351;28;20032;-69
2022/05/21 01:13:52;;;;;;;2.08;1.35;;;;;;;20.44;46.47;101824.28;5055992;28;20032;-68
2022/05/21 01:16:18;;;;;;;10.15;2.03;;;;;;;20.43;46.62;101828.06;5055925;28;20033;-68
2022/05/21 01:18:43;;;;;;;6.60;2.75;;;;;;;20.41;46.25;101819.22;5055839;28;20017;-69
2022/05/21 01:21:09;;;;;;;6.85;1.55;;;;;;;20.38;46.14;101811.38;5055346;28;20021;-68
2022/05/21 01:23:34;;;;;;;6.53;1.70;;;;;;;20.35;46.82;101830.78;5055744;28;20033;-68
2022/05/21 01:26:02;;;;;;;8.93;2.72;;;;;;;20.35;46.87;101830.78;5056036;28;20025;-68
2022/05/21 01:28:31;;;;;;;4.20;1.98;;;;;;;20.29;46.26;101827.72;5054540;28;20474;-68
2022/05/21 01:30:58;;;;;;;4.57;1.35;;;;;;;20.30;46.17;101823.94;5055540;28;20021;-68
2022/05/21 01:33:27;;;;;;;5.65;1.52;;;;;;;20.29;46.40;101829.56;5055358;28;20486;-69
2022/05/21 01:35:52;;;;;;;3.13;1.20;;;;;;;20.28;46.38;101819.69;5055450;28;20108;-68
2022/05/21 01:38:19;;;;;;;5.82;1.35;;;;;;;20.28;46.28;101819.69;5055255;28;20442;-68
2022/05/21 01:40:45;;;;;;;3.22;1.67;;;;;;;20.27;46.78;101821.56;5054239;28;20051;-68
2022/05/21 01:45:55;;;;;;;6.07;1.52;;;;;;;20.23;46.35;101805.72;5055224;28;20485;-68
2022/05/21 01:48:23;;;;;;;3.83;1.63;;;;;;;20.22;46.55;101802.13;5053978;28;20017;-69
2022/05/21 01:50:49;;;;;;;4.35;1.42;;;;;;;20.22;46.77;101802.13;5054169;28;20024;-68
2022/05/21 01:53:15;;;;;;;4.30;1.15;;;;;;;20.23;46.25;101806.56;5055003;28;20082;-69
2022/05/21 01:55:42;;;;;;;4.63;1.17;;;;;;;20.21;46.38;101807.75;5055123;28;20048;-68
2022/05/21 01:58:07;;;;;;;4.57;1.52;;;;;;;20.20;45.67;101800.59;5053461;28;20045;-68
2022/05/21 02:00:33;;;;;;;3.13;1.10;;;;;;;20.20;46.30;101806.03;5054932;28;20059;-68
2022/05/21 02:02:58;;;;;;;2.28;1.20;;;;;;;20.19;46.20;101810.63;5054742;28;20025;-69
2022/05/21 02:05:24;;;;;;;4.75;1.33;;;;;;;20.17;46.44;101812.69;5054747;28;20433;-68
2022/05/21 02:07:49;;;;;;;2.92;1.48;;;;;;;20.15;46.32;101808.44;5054725;28;20032;-68
2022/05/21 02:10:16;;;;;;;6.78;1.48;;;;;;;20.13;46.72;101810.44;5054790;28;20471;-69
2022/05/21 02:12:41;;;;;;;8.98;1.60;;;;;;;20.14;46.44;101812.16;5054705;28;20025;-68
2022/05/21 02:15:07;;;;;;;9.45;1.75;;;;;;;20.12;45.96;101804.19;5048734;28;20086;-69
2022/05/21 02:17:33;;;;;;;6.57;1.67;;;;;;;20.11;45.88;101807.91;5034929;28;20453;-67
2022/05/21 02:19:59;;;;;;;4.35;1.33;;;;;;;20.11;46.57;101812.47;5034593;28;20070;-69
2022/05/21 02:22:24;;;;;;;2.15;1.58;;;;;;;20.10;46.49;101808.09;5034639;28;20146;-69
2022/05/21 02:24:49;;;;;;;3.47;1.02;;;;;;;20.10;45.60;101817.06;5034625;28;20490;-69
2022/05/21 02:27:15;;;;;;;3.50;1.38;;;;;;;20.08;46.45;101813.66;5034485;28;20426;-68
2022/05/21 02:29:41;;;;;;;4.00;1.42;;;;;;;20.06;46.09;101814.84;5034869;28;20489;-68
2022/05/21 02:32:08;;;;;;;3.30;1.25;;;;;;;20.03;46.33;101816.03;5034320;28;20117;-68
2022/05/21 02:34:33;;;;;;;5.70;1.17;;;;;;;20.03;46.43;101813.31;5034379;28;20128;-68
2022/05/21 02:39:43;;;;;;;3.75;1.35;;;;;;;20.00;46.27;101821.81;5053475;28;20027;-69
2022/05/21 02:42:43;;;;;;;1.95;1.02;;;;;;;19.97;46.41;101816.72;5054026;28;20100;-69
2022/05/21 02:44:55;;;;;;;2.25;1.20;;;;;;;19.95;46.69;101815.16;5053902;28;20029;-69
2022/05/21 02:47:20;;;;;;;2.42;1.25;;;;;;;19.93;47.12;101815.34;5053787;28;20087;-68
2022/05/21 02:49:45;;;;;;;3.92;0.98;;;;;;;19.91;46.24;101811.06;5054165;28;20111;-68
2022/05/21 02:52:11;;;;;;;4.18;1.42;;;;;;;19.88;46.60;101814.16;5054388;28;20025;-68
2022/05/21 02:54:36;;;;;;;6.43;1.30;;;;;;;19.85;46.65;101807.13;5053742;28;20032;-68
2022/05/21 02:57:01;;;;;;;5.22;1.30;;;;;;;19.83;46.27;101811.91;5053913;28;20056;-68
2022/05/21 02:59:29;;;;;;;3.63;1.30;;;;;;;19.82;46.39;101806.66;5052845;28;20102;-68
2022/05/21 03:01:54;;;;;;;4.20;1.63;;;;;;;19.81;46.53;101808.50;5054160;28;20043;-67
2022/05/21 03:04:20;;;;;;;6.22;1.42;;;;;;;19.80;47.08;101814.09;5053952;28;20025;-67
2022/05/21 03:06:45;;;;;;;1.60;0.75;;;;;;;19.77;46.08;101810.69;5052803;28;20028;-68
2022/05/21 03:11:54;;;;;;;3.55;1.23;;;;;;;19.71;46.35;101815.94;5053719;28;20393;-68
2022/05/21 03:14:20;;;;;;;8.75;1.40;;;;;;;19.70;46.04;101815.09;5038913;28;20025;-68
2022/05/21 03:16:45;;;;;;;6.30;1.58;;;;;;;19.69;46.39;101817.97;5033791;28;20044;-68
2022/05/21 03:19:11;;;;;;;6.55;1.45;;;;;;;19.70;46.56;101814.25;5033782;28;20026;-67
2022/05/21 03:21:36;;;;;;;5.15;1.48;;;;;;;19.70;46.67;101817.81;5033730;28;20025;-69
2022/05/21 03:24:02;;;;;;;2.53;1.10;;;;;;;19.71;46.49;101813.22;5033777;28;20100;-68
2022/05/21 03:26:27;;;;;;;2.15;1.08;;;;;;;19.72;46.14;101814.94;5033776;28;20088;-67
2022/05/21 03:28:52;;;;;;;4.63;1.48;;;;;;;19.72;46.05;101804.91;5033414;28;20086;-69
2022/05/21 03:31:18;;;;;;;5.60;0.90;;;;;;;19.76;46.60;101816.31;5033360;28;20025;-69
2022/05/21 03:33:43;;;;;;;4.10;1.40;;;;;;;19.77;46.71;101809.84;5033580;28;20048;-69
2022/05/21 03:36:08;;;;;;;5.70;2.33;;;;;;;19.78;46.02;101822.44;5033289;28;20025;-68
2022/05/21 03:38:34;;;;;;;7.50;1.30;;;;;;;19.78;46.11;101827.88;5043111;28;20017;-68
2022/05/21 03:40:59;;;;;;;3.58;1.42;;;;;;;19.79;46.48;101826.00;5053510;28;20382;-68
2022/05/21 03:43:25;;;;;;;11.73;1.48;;;;;;;19.79;46.44;101824.16;5053319;28;20502;-68
2022/05/21 03:45:51;;;;;;;2.45;1.20;;;;;;;19.82;46.12;101825.69;5052274;28;20099;-68
2022/05/21 03:48:16;;;;;;;3.63;1.05;;;;;;;19.83;46.74;101830.09;5053324;28;20017;-68
2022/05/21 03:50:42;;;;;;;3.53;1.20;;;;;;;19.83;46.43;101830.09;5053214;28;20024;-67
2022/05/21 03:53:09;;;;;;;6.38;1.70;;;;;;;19.84;46.54;101832.66;5053222;28;20036;-68
2022/05/21 03:55:35;;;;;;;4.38;1.60;;;;;;;19.83;46.56;101824.66;5053324;28;20107;-68
2022/05/21 03:58:00;;;;;;;2.97;1.30;;;;;;;19.85;46.18;101828.91;5052856;28;20045;-69
2022/05/21 04:00:26;;;;;;;8.35;1.67;;;;;;;19.86;46.40;101829.75;5052855;28;20029;-69
2022/05/21 04:02:51;;;;;;;6.20;1.20;;;;;;;19.84;46.03;101831.81;5053333;28;20493;-68
2022/05/21 04:05:17;;;;;;;2.70;1.25;;;;;;;19.85;46.04;101831.63;5053236;28;20470;-68
2022/05/21 04:07:43;;;;;;;4.47;1.10;;;;;;;19.85;45.90;101834.34;5052962;28;20017;-69
2022/05/21 04:10:09;;;;;;;5.57;1.42;;;;;;;19.87;46.38;101832.31;5053303;28;20025;-68
2022/05/21 04:12:35;;;;;;;7.88;1.38;;;;;;;19.90;46.32;101842.03;5053233;28;20044;-69
2022/05/21 04:15:01;;;;;;;3.58;1.17;;;;;;;19.90;45.90;101840.16;5056421;28;20466;-68
2022/05/21 04:17:26;;;;;;;8.48;1.50;;;;;;;19.90;46.52;101840.16;5055125;28;20076;-69
2022/05/21 04:19:52;;;;;;;2.47;1.25;;;;;;;19.91;46.36;101847.28;5057035;28;20092;-68
2022/05/21 04:22:17;;;;;;;5.50;1.30;;;;;;;19.91;46.46;101849.13;5056850;28;20051;-68
2022/05/21 04:24:42;;;;;;;9.98;1.65;;;;;;;19.92;45.98;101849.00;5056877;28;20025;-68
2022/05/21 04:27:08;;;;;;;6.30;1.25;;;;;;;19.96;46.11;101847.63;5056649;28;20060;-68
2022/05/21 04:29:34;;;;;;;9.27;1.40;;;;;;;19.94;46.35;101855.13;5056665;28;20063;-69
2022/05/21 04:32:00;;;;;;;6.18;1.67;;;;;;;19.97;46.30;101859.38;5056610;28;20025;-69
2022/05/21 04:34:25;;;;;;;4.20;1.73;;;;;;;19.97;46.23;101868.38;5056450;28;20099;-68
2022/05/21 04:36:50;;;;;;;3.72;1.80;;;;;;;19.98;46.10;101867.38;5056618;28;20090;-68
2022/05/21 04:39:16;;;;;;;4.57;1.58;;;;;;;19.98;46.44;101859.22;5056324;28;20114;-69
2022/05/21 04:41:41;;;;;;;12.65;2.45;;;;;;;20.00;46.23;101868.06;5056370;28;20025;-69
2022/05/21 04:44:07;;;;;;;3.55;1.40;;;;;;;20.01;46.52;101872.50;5056560;28;20024;-68
2022/05/21 04:46:32;;;;;;;2.88;1.27;;;;;;;20.01;46.41;101866.19;5056729;28;20112;-67
2022/05/21 04:48:58;;;;;;;7.90;2.05;;;;;;;20.02;45.95;101874.19;5056218;28;20475;-68
2022/05/21 04:51:24;;;;;;;7.70;1.95;;;;;;;20.04;46.34;101882.19;5056347;28;20051;-68
2022/05/21 04:53:49;;;;;;;3.03;1.60;;;;;;;20.06;46.09;101878.28;5056499;28;20049;-69
2022/05/21 04:56:14;;;;;;;3.88;1.27;;;;;;;20.10;46.18;101882.38;5056423;28;20099;-68
2022/05/21 04:58:40;;;;;;;6.00;1.67;;;;;;;20.12;45.78;101891.22;5046920;28;20041;-68
2022/05/21 05:01:06;;;;;;;5.53;1.23;;;;;;;20.11;46.43;101889.53;5036682;28;20037;-68
2022/05/21 05:03:31;;;;;;;3.25;1.80;;;;;;;20.12;46.19;101896.69;5036324;28;20022;-69
2022/05/21 05:05:57;;;;;;;3.80;1.13;;;;;;;20.15;46.39;101899.06;5035982;28;20026;-68
2022/05/21 05:08:23;;;;;;;4.30;1.10;;;;;;;20.20;46.48;101891.25;5035731;28;20029;-68
2022/05/21 05:10:48;;;;;;;5.60;1.42;;;;;;;20.25;46.05;101897.06;5035928;28;20028;-68
2022/05/21 05:13:15;;;;;;;5.07;1.48;;;;;;;20.29;46.87;101901.19;5040554;28;20024;-69
2022/05/21 05:15:44;;;;;;;5.75;1.50;;;;;;;20.32;46.10;101897.28;5055873;28;20437;-68
2022/05/21 05:18:12;;;;;;;9.98;2.10;;;;;;;20.36;46.26;101908.66;5055766;28;20029;-68
2022/05/21 05:20:37;;;;;;;3.75;1.40;;;;;;;20.38;46.15;101901.19;5055797;28;20027;-68
2022/05/21 05:23:04;;;;;;;5.82;1.67;;;;;;;20.43;46.44;101916.00;5055973;28;20111;-68
2022/05/21 05:25:30;;;;;;;9.35;1.17;;;;;;;20.53;46.25;101899.50;5055624;28;20131;-68
2022/05/21 05:27:56;;;;;;;8.35;2.05;;;;;;;20.57;45.78;101899.03;5055483;28;20063;-69
2022/05/21 05:30:22;;;;;;;8.20;2.15;;;;;;;20.69;45.61;101900.38;5055581;28;20433;-69
2022/05/21 05:32:48;;;;;;;8.20;1.48;;;;;;;20.90;46.33;101902.63;5055420;28;20032;-68
2022/05/21 05:35:15;;;;;;;9.23;2.13;;;;;;;21.13;45.65;101892.78;5055657;28;20059;-69
2022/05/21 05:37:40;;;;;;;5.45;1.95;;;;;;;21.26;45.12;101901.28;5055653;28;20028;-68
2022/05/21 05:40:08;;;;;;;6.57;1.70;;;;;;;21.44;45.20;101896.44;5055590;28;20041;-68
2022/05/21 05:42:35;;;;;;;8.93;2.15;;;;;;;21.63;44.99;101897.09;5054251;28;20492;-69
2022/05/21 05:45:01;;;;;;;5.43;2.13;;;;;;;21.82;45.56;101892.09;5054878;28;20040;-68
2022/05/21 05:47:27;;;;;;;3.83;1.88;;;;;;;22.04;45.22;101895.94;5055420;28;20086;-68
2022/05/21 05:49:53;;;;;;;4.00;2.00;;;;;;;22.24;45.04;101885.44;5055620;28;20032;-69
2022/05/21 05:52:18;;;;;;;6.22;2.28;;;;;;;22.46;44.02;101898.28;5053821;28;20017;-69
2022/05/21 05:54:44;;;;;;;5.00;1.90;;;;;;;22.70;44.80;101900.84;5055859;28;20047;-69
2022/05/21 05:57:13;;;;;;;6.03;1.88;;;;;;;22.86;43.66;101897.16;5054831;28;20047;-68
2022/05/21 05:59:51;;;;;;;6.97;2.35;;;;;;;22.98;44.45;101898.41;5055158;28;20032;-68
2022/05/21 06:05:02;;;;;;;5.85;1.88;;;;;;;23.29;43.40;101896.41;5038355;28;20051;-68
2022/05/21 06:07:27;;;;;;;11.88;1.98;;;;;;;23.47;44.05;101879.69;5035300;28;20033;-68
2022/05/21 06:09:54;;;;;;;12.55;2.00;;;;;;;23.65;43.32;101891.97;5035037;28;20475;-68
2022/05/21 06:12:19;;;;;;;4.60;2.35;;;;;;;23.86;43.66;101895.81;5033885;28;20433;-68
2022/05/21 06:14:45;;;;;;;9.93;1.55;;;;;;;23.98;43.32;101899.78;5035152;28;20163;-68
2022/05/21 06:17:11;;;;;;;11.13;2.85;;;;;;;24.11;43.18;101891.78;5034765;28;20031;-68
2022/05/21 06:19:37;;;;;;;9.65;1.95;;;;;;;24.24;42.97;101892.78;5038063;28;20094;-68
2022/05/21 06:22:03;;;;;;;6.78;2.08;;;;;;;24.44;42.85;101903.09;5041915;28;20479;-68
2022/05/21 06:24:29;;;;;;;6.88;1.73;;;;;;;24.54;42.20;101904.50;5047048;28;20021;-68
2022/05/21 06:26:54;;;;;;;5.93;2.30;;;;;;;24.40;42.44;101905.38;5047934;28;20021;-68
2022/05/21 06:29:20;;;;;;;10.00;2.70;;;;;;;24.43;42.88;101907.72;5054263;28;20055;-67
2022/05/21 06:31:45;;;;;;;8.70;2.60;;;;;;;24.68;41.86;101916.47;5054643;28;20036;-67
2022/05/21 06:34:11;;;;;;;8.23;2.22;;;;;;;24.54;41.97;101912.72;5048696;28;20417;-68
2022/05/21 06:36:36;;;;;;;9.57;2.17;;;;;;;24.53;42.14;101913.78;5032836;28;20080;-68
2022/05/21 06:39:02;;;;;;;6.97;2.10;;;;;;;24.80;42.09;101920.41;5034556;28;20045;-68
2022/05/21 06:41:30;;;;;;;9.13;2.25;;;;;;;24.81;41.75;101913.88;5035478;28;20028;-68
2022/05/21 06:43:56;;;;;;;7.88;2.03;;;;;;;25.02;41.27;101918.50;5054216;28;20082;-68
2022/05/21 06:46:21;;;;;;;12.13;2.42;;;;;;;25.21;41.01;101909.63;5054465;28;20103;-68
2022/05/21 06:48:47;;;;;;;5.45;2.15;;;;;;;25.19;40.96;101914.44;5054101;28;20463;-68
2022/05/21 06:51:12;;;;;;;8.75;1.83;;;;;;;25.28;40.93;101916.00;5052845;28;20534;-68
2022/05/21 06:53:38;;;;;;;5.00;1.70;;;;;;;25.31;41.03;101918.34;5052989;28;20433;-68
2022/05/21 06:56:12;;;;;;;7.85;2.58;;;;;;;25.60;40.66;101920.06;5054240;28;20016;-68
2022/05/21 06:58:38;;;;;;;5.35;2.13;;;;;;;25.52;40.30;101914.75;5049993;28;20083;-68
2022/05/21 07:01:03;;;;;;;13.07;2.33;;;;;;;25.68;40.86;101911.66;5054004;28;20036;-68
2022/05/21 07:03:29;;;;;;;9.70;3.03;;;;;;;25.64;40.76;101919.44;5052668;28;20395;-68
2022/05/21 07:08:38;;;;;;;10.05;1.85;;;;;;;25.95;39.87;101913.50;5053543;28;20398;-68
2022/05/21 07:11:03;;;;;;;11.32;1.90;;;;;;;25.71;39.99;101909.34;5053623;28;20025;-67
2022/05/21 07:13:30;;;;;;;10.18;2.03;;;;;;;25.77;40.11;101911.28;5036533;28;20018;-68
2022/05/21 07:15:56;;;;;;;4.55;2.67;;;;;;;26.00;39.58;101925.56;5033769;28;20024;-68
2022/05/21 07:18:23;;;;;;;14.02;2.22;;;;;;;25.87;40.06;101921.91;5033692;28;20064;-69
2022/05/21 07:20:48;;;;;;;5.35;1.38;;;;;;;25.93;39.54;101924.72;5033598;28;20029;-68
2022/05/21 07:23:14;;;;;;;12.57;2.05;;;;;;;25.80;39.59;101927.34;5033600;28;20063;-69
2022/05/21 07:25:40;;;;;;;12.95;2.92;;;;;;;25.88;39.59;101920.88;5015859;28;20030;-68
2022/05/21 07:28:07;;;;;;;11.43;1.80;;;;;;;25.72;39.96;101930.28;5033542;28;20471;-69
2022/05/21 07:30:33;;;;;;;5.78;1.83;;;;;;;25.95;39.04;101928.09;5033896;28;20061;-68
2022/05/21 07:32:59;;;;;;;10.38;1.88;;;;;;;26.17;38.81;101934.34;5032086;28;20030;-69
2022/05/21 07:35:25;;;;;;;10.80;1.83;;;;;;;26.29;38.31;101934.63;5033810;28;20037;-68
2022/05/21 07:37:51;;;;;;;6.15;1.90;;;;;;;26.27;38.62;101925.75;5037495;28;20509;-68
2022/05/21 07:40:18;;;;;;;7.30;1.80;;;;;;;26.60;37.88;101929.44;5053680;28;20040;-68
2022/05/21 07:42:44;;;;;;;3.53;1.33;;;;;;;26.71;38.88;101928.84;5052088;28;20070;-68
2022/05/21 07:45:11;;;;;;;9.75;2.10;;;;;;;26.56;38.38;101933.66;5053203;28;20104;-68
2022/05/21 07:47:37;;;;;;;8.90;2.38;;;;;;;26.91;38.38;101920.66;5053226;28;20032;-68
2022/05/21 07:50:03;;;;;;;7.22;2.17;;;;;;;27.01;37.78;101930.19;5055634;28;20024;-69
2022/05/21 07:52:29;;;;;;;6.43;2.08;;;;;;;27.08;37.19;101942.03;5057304;28;20025;-68
2022/05/21 07:54:55;;;;;;;11.32;2.72;;;;;;;27.25;37.25;101936.13;5045703;28;20033;-68
2022/05/21 07:57:20;;;;;;;11.75;2.38;;;;;;;27.27;38.11;101940.38;5017174;28;20132;-69
2022/05/21 07:59:46;;;;;;;7.30;2.08;;;;;;;27.08;37.60;101942.03;5023462;28;20458;-68
2022/05/21 08:02:13;;;;;;;4.20;1.45;;;;;;;26.79;37.58;101942.41;5017778;28;20037;-68
2022/05/21 08:04:41;;;;;;;8.13;2.25;;;;;;;27.00;37.42;101939.47;5031266;28;20087;-68
2022/05/21 08:07:07;;;;;;;3.67;1.23;;;;;;;27.04;37.24;101946.28;5037314;28;20036;-68
2022/05/21 08:09:32;;;;;;;11.30;2.03;;;;;;;26.87;38.01;101950.47;5037466;28;20402;-68
2022/05/21 08:11:57;;;;;;;8.40;1.83;;;;;;;27.00;37.31;101944.13;5036923;28;20029;-68
2022/05/21 08:14:23;;;;;;;4.15;1.90;;;;;;;27.28;37.13;101953.03;5035775;28;20030;-68
2022/05/21 08:16:49;;;;;;;10.57;2.45;;;;;;;27.46;37.15;101944.19;5036960;28;20037;-68
2022/05/21 08:19:15;;;;;;;5.72;2.15;;;;;;;27.56;36.96;101944.59;5015801;28;20030;-68
2022/05/21 08:21:40;;;;;;;7.28;2.20;;;;;;;27.86;36.09;101948.59;5017153;28;20439;-68
2022/05/21 08:26:56;;;;;;;4.80;1.85;;;;;;;27.91;36.38;101954.28;5015887;28;20151;-68
2022/05/21 08:29:25;;;;;;;10.13;2.47;;;;;;;28.05;35.64;101955.97;5017116;28;20105;-68
2022/05/21 08:31:50;;;;;;;6.40;1.75;;;;;;;27.81;35.91;101959.38;5017653;28;20033;-68
2022/05/21 08:34:16;;;;;;;5.57;2.05;;;;;;;27.57;37.07;101960.06;5024868;28;20033;-68
2022/05/21 08:36:41;;;;;;;8.57;2.40;;;;;;;27.36;36.75;101949.25;5015684;28;20499;-68
2022/05/21 08:39:09;;;;;;;7.85;1.85;;;;;;;27.37;36.46;101959.19;5016728;28;20069;-67
2022/05/21 08:41:35;;;;;;;3.13;1.35;;;;;;;27.48;36.37;101959.44;5016636;28;20021;-67
2022/05/21 08:44:17;;;;;;;10.48;2.63;;;;;;;27.59;36.36;101964.28;5027191;28;20030;-67
2022/05/21 08:46:43;;;;;;;6.72;2.58;;;;;;;27.28;37.30;101958.53;5036400;28;20038;-68
2022/05/21 08:49:20;;;;;;;5.40;1.88;;;;;;;27.03;36.59;101972.06;5036280;28;20156;-68
2022/05/21 08:51:54;;;;;;;9.30;2.28;;;;;;;26.83;37.54;101968.44;5036209;28;20037;-67
2022/05/21 08:54:23;;;;;;;6.75;2.42;;;;;;;26.71;36.69;101964.59;5035299;28;20032;-67
2022/05/21 08:56:49;;;;;;;3.58;2.33;;;;;;;27.22;36.68;101975.06;5035110;28;20149;-68
2022/05/21 08:59:16;;;;;;;7.90;2.00;;;;;;;27.84;35.23;101969.13;5034243;28;20132;-67
2022/05/21 09:01:44;;;;;;;8.50;2.20;;;;;;;28.14;35.99;101960.16;5034980;28;20509;-67
2022/05/21 09:04:12;;;;;;;9.27;2.53;;;;;;;28.49;35.81;101962.59;5051459;28;20021;-68
2022/05/21 09:06:47;;;;;;;4.75;2.03;;;;;;;28.19;35.30;101956.78;5051287;28;20167;-68
2022/05/21 09:09:21;;;;;;;9.57;2.08;;;;;;;27.97;35.48;101961.69;5036054;28;20036;-68
2022/05/21 09:11:56;;;;;;;6.93;2.25;;;;;;;28.23;36.14;101952.50;5036208;28;20032;-68
2022/05/21 09:14:41;;;;;;;4.15;2.00;;;;;;;28.67;34.82;101951.72;5035070;28;20104;-68
2022/05/21 09:17:19;;;;;;;7.88;2.17;;;;;;;28.51;35.70;101950.25;5036483;28;20018;-67
2022/05/21 09:19:47;;;;;;;8.52;2.83;;;;;;;28.20;35.55;101947.44;5035969;28;20471;-67
2022/05/21 09:22:15;;;;;;;9.10;2.28;;;;;;;28.47;35.65;101951.78;5036131;28;20025;-68
2022/05/21 09:24:43;;;;;;;9.23;2.00;;;;;;;28.87;35.09;101944.13;5036204;28;20379;-68
2022/05/21 09:27:28;;;;;;;11.23;3.25;;;;;;;29.27;34.75;101939.22;5035983;28;20057;-68
2022/05/21 09:30:11;;;;;;;6.00;1.92;;;;;;;29.64;34.25;101946.53;5034587;28;20022;-68
2022/05/21 09:32:37;;;;;;;8.73;3.15;;;;;;;29.95;33.89;101942.81;5035566;28;20163;-68
2022/05/21 09:35:11;;;;;;;12.10;2.35;;;;;;;30.31;33.32;101942.81;5034323;28;20111;-68
2022/05/21 09:37:38;;;;;;;2.67;1.33;;;;;;;30.00;34.12;101943.81;5035344;28;20220;-68
2022/05/21 09:40:34;;;;;;;9.45;1.80;;;;;;;30.08;33.81;101945.44;5035276;28;20021;-67
2022/05/21 09:45:47;;;;;;;7.45;1.55;;;;;;;30.53;33.14;101940.41;5034229;28;20091;-68
2022/05/21 09:48:16;;;;;;;4.97;1.70;;;;;;;30.55;32.47;101944.63;5050531;28;20030;-68
2022/05/21 09:50:53;;;;;;;13.50;1.92;;;;;;;30.09;33.34;101944.38;5035084;28;20079;-67
2022/05/21 09:53:36;;;;;;;5.78;1.83;;;;;;;29.59;33.80;101949.13;5034079;28;20505;-68
2022/05/21 09:56:24;;;;;;;6.78;1.50;;;;;;;29.16;33.93;101949.03;5036145;28;20034;-67
2022/05/21 09:58:54;;;;;;;5.72;1.52;;;;;;;28.98;34.30;101953.66;5035156;28;20045;-68
2022/05/21 10:01:38;;;;;;;9.43;5.22;;;;;;;29.80;33.22;101957.00;5050292;28;20073;-68
2022/05/21 10:04:20;;;;;;;6.78;1.58;;;;;;;30.14;32.26;101947.28;5035010;28;20051;-68
2022/05/21 10:06:49;;;;;;;6.55;2.10;;;;;;;30.62;32.16;101954.78;5033581;28;20392;-68
2022/05/21 10:12:08;;;;;;;7.22;1.20;;;;;;;32.57;29.22;101948.78;5033151;28;20032;-68
2022/05/21 10:14:46;;;;;;;9.40;1.50;;;;;;;32.54;29.50;101955.69;5050363;28;20103;-67
2022/05/21 10:17:30;;;;;;;6.68;1.77;;;;;;;32.87;29.51;101949.34;5033458;28;20029;-68
2022/05/21 10:20:31;;;;;;;3.15;1.40;;;;;;;33.13;29.13;101950.69;5039073;28;20021;-68
2022/05/21 10:23:11;;;;;;;4.53;1.48;;;;;;;33.04;29.54;101943.84;5042455;28;20494;-67
2022/05/21 10:25:51;;;;;;;5.63;2.55;;;;;;;32.37;30.13;101940.88;5053191;28;20031;-68
2022/05/21 10:28:53;;;;;;;8.88;2.05;;;;;;;31.79;31.16;101942.88;5053104;28;20120;-68
2022/05/21 10:31:40;;;;;;;4.45;1.73;;;;;;;31.26;31.33;101952.13;5054143;28;20017;-68
2022/05/21 10:34:23;;;;;;;5.53;1.33;;;;;;;31.12;31.20;101950.63;5054132;28;20094;-67
2022/05/21 10:37:13;;;;;;;5.55;1.52;;;;;;;31.23;31.00;101949.81;5054175;28;20021;-69
2022/05/21 10:39:53;;;;;;;8.70;1.67;;;;;;;30.88;31.19;101952.44;5054189;28;20033;-68
2022/05/21 10:43:02;;;;;;;3.35;1.10;;;;;;;30.47;31.23;101958.78;5052756;28;20071;-68
2022/05/21 10:45:34;;;;;;;4.43;2.30;;;;;;;30.62;31.15;101960.31;5052775;28;20542;-68
2022/05/21 10:48:06;;;;;;;8.00;2.00;;;;;;;31.37;30.34;101954.06;5052639;28;20028;-69
2022/05/21 10:50:40;;;;;;;6.18;2.22;;;;;;;31.76;30.25;101946.13;5052928;28;20036;-69
2022/05/21 10:53:40;;;;;;;5.07;1.42;;;;;;;31.55;30.50;101951.19;5052639;28;20037;-68
2022/05/21 10:56:11;;;;;;;3.67;1.30;;;;;;;32.37;29.89;101949.19;5053777;28;20108;-68
2022/05/21 10:59:00;;;;;;;5.82;1.27;;;;;;;32.08;30.36;101953.84;5053443;28;20056;-69
2022/05/21 11:01:38;;;;;;;6.88;2.15;;;;;;;32.99;28.51;101952.94;5053781;28;20039;-69
2022/05/21 11:04:38;;;;;;;3.58;1.63;;;;;;;33.74;28.73;101950.63;5052557;28;20045;-68
2022/05/21 11:07:17;;;;;;;3.92;1.50;;;;;;;34.55;27.47;101948.91;5041458;28;20056;-68
2022/05/21 11:09:52;;;;;;;5.03;1.73;;;;;;;34.19;27.60;101946.81;5053758;28;20402;-68
2022/05/21 11:12:22;;;;;;;1.50;1.40;;;;;;;34.78;27.98;101945.88;5052643;28;20382;-68
2022/05/21 11:14:54;;;;;;;7.90;1.98;;;;;;;35.05;27.36;101946.69;5052197;28;20020;-67
2022/05/21 11:17:30;;;;;;;6.03;3.07;;;;;;;34.74;27.40;101943.84;5053839;28;20020;-68
2022/05/21 11:19:57;;;;;;;7.20;1.85;;;;;;;35.40;27.39;101948.13;5052350;28;20028;-67
2022/05/21 11:22:48;;;;;;;4.75;1.40;;;;;;;34.77;26.59;101944.19;5053498;28;20048;-69
2022/05/21 11:25:18;;;;;;;2.55;1.48;;;;;;;34.43;27.25;101942.66;5043628;28;20037;-67
2022/05/21 11:28:14;;;;;;;6.13;1.30;;;;;;;33.76;27.97;101940.06;5053628;28;20017;-68
2022/05/21 11:30:40;;;;;;;4.72;1.30;;;;;;;33.23;28.70;101948.94;5053375;28;20059;-68
2022/05/21 11:38:52;;;;;;;3.33;1.40;;;;;;;33.38;28.04;101934.44;5052367;28;20384;-68
2022/05/21 11:41:27;;;;;;;4.57;1.40;;;;;;;32.73;28.13;101940.50;5053162;28;20078;-67
2022/05/21 11:47:14;;;;;;;8.82;2.05;;;;;;;31.66;28.63;101933.72;5053042;28;20421;-66
2022/05/21 11:50:03;;;;;;;3.78;1.42;;;;;;;31.44;29.00;101938.16;5051822;28;20482;-68
2022/05/21 11:52:35;;;;;;;5.75;1.67;;;;;;;31.73;28.24;101924.44;5052977;28;20024;-68
2022/05/21 11:55:12;;;;;;;6.35;2.00;;;;;;;32.54;27.83;101927.91;5053026;28;20095;-68
2022/05/21 11:57:45;;;;;;;4.97;2.03;;;;;;;32.17;28.63;101926.56;5052786;28;20049;-68
2022/05/21 12:00:24;;;;;;;5.97;1.70;;;;;;;32.17;28.53;101932.09;5052999;28;20117;-68
2022/05/21 12:02:56;;;;;;;3.15;1.25;;;;;;;32.91;28.54;101935.81;5053275;28;20045;-68
2022/05/21 12:05:46;;;;;;;7.40;1.55;;;;;;;32.60;28.12;101932.50;5052895;28;20491;-68
2022/05/21 12:08:30;;;;;;;6.43;1.08;;;;;;;32.12;28.39;101932.00;5053214;28;20040;-69